sensor_id;sensor_type;location;lat;lon;timestamp;P1;durP1;ratioP1;P2;durP2;ratioP2
53718;SDS011;39616;48.872;9.390;2022-10-19T00:02:09;17.55;;;4.88;;
53718;SDS011;39616;48.872;9.390;2022-10-19T00:04:39;10.60;;;4.00;;
53718;SDS011;39616;48.872;9.390;2022-10-19T00:07:09;8.00;;;4.15;;
53718;SDS011;39616;48.872;9.390;2022-10-19T00:09:41;7.78;;;4.60;;
53718;SDS011;39616;48.872;9.390;2022-10-19T00:12:12;7.78;;;4.10;;
53718;SDS011;39616;48.872;9.390;2022-10-19T00:14:43;10.43;;;4.07;;
53718;SDS011;39616;48.872;9.390;2022-10-19T00:17:14;7.15;;;3.90;;
53718;SDS011;39616;48.872;9.390;2022-10-19T00:19:44;10.07;;;3.95;;
53718;SDS011;39616;48.872;9.390;2022-10-19T00:22:14;10.07;;;4.40;;
53718;SDS011;39616;48.872;9.390;2022-10-19T00:24:45;8.57;;;4.53;;
53718;SDS011;39616;48.872;9.390;2022-10-19T00:27:15;6.70;;;4.50;;
53718;SDS011;39616;48.872;9.390;2022-10-19T00:29:46;9.77;;;4.90;;
53718;SDS011;39616;48.872;9.390;2022-10-19T00:32:16;11.38;;;5.13;;
53718;SDS011;39616;48.872;9.390;2022-10-19T00:34:46;9.13;;;5.28;;
53718;SDS011;39616;48.872;9.390;2022-10-19T00:37:17;16.98;;;6.18;;
53718;SDS011;39616;48.872;9.390;2022-10-19T00:39:47;8.45;;;5.25;;
53718;SDS011;39616;48.872;9.390;2022-10-19T00:42:18;15.38;;;5.00;;
53718;SDS011;39616;48.872;9.390;2022-10-19T00:47:18;11.90;;;6.53;;
53718;SDS011;39616;48.872;9.390;2022-10-19T00:49:53;8.07;;;5.87;;
53718;SDS011;39616;48.872;9.390;2022-10-19T00:52:24;15.07;;;5.45;;
53718;SDS011;39616;48.872;9.390;2022-10-19T00:54:55;10.75;;;5.35;;
53718;SDS011;39616;48.872;9.390;2022-10-19T00:57:28;8.93;;;5.45;;
53718;SDS011;39616;48.872;9.390;2022-10-19T01:00:00;9.15;;;5.18;;
53718;SDS011;39616;48.872;9.390;2022-10-19T01:02:35;12.77;;;5.95;;
53718;SDS011;39616;48.872;9.390;2022-10-19T01:05:05;10.45;;;5.80;;
53718;SDS011;39616;48.872;9.390;2022-10-19T01:07:37;15.32;;;7.82;;
53718;SDS011;39616;48.872;9.390;2022-10-19T01:10:07;15.00;;;7.03;;
53718;SDS011;39616;48.872;9.390;2022-10-19T01:12:54;19.02;;;7.95;;
53718;SDS011;39616;48.872;9.390;2022-10-19T01:35:45;8.23;;;5.55;;
53718;SDS011;39616;48.872;9.390;2022-10-19T01:38:15;9.68;;;5.57;;
53718;SDS011;39616;48.872;9.390;2022-10-19T01:49:01;27.70;;;7.97;;
53718;SDS011;39616;48.872;9.390;2022-10-19T01:51:38;22.23;;;7.53;;
53718;SDS011;39616;48.872;9.390;2022-10-19T01:54:14;26.08;;;9.57;;
53718;SDS011;39616;48.872;9.390;2022-10-19T01:56:47;20.80;;;8.77;;
53718;SDS011;39616;48.872;9.390;2022-10-19T01:59:19;20.13;;;8.38;;
53718;SDS011;39616;48.872;9.390;2022-10-19T02:01:50;19.00;;;8.32;;
53718;SDS011;39616;48.872;9.390;2022-10-19T02:04:22;18.25;;;8.52;;
53718;SDS011;39616;48.872;9.390;2022-10-19T02:06:54;16.92;;;8.57;;
53718;SDS011;39616;48.872;9.390;2022-10-19T02:09:25;20.17;;;8.48;;
53718;SDS011;39616;48.872;9.390;2022-10-19T02:11:57;19.63;;;8.90;;
53718;SDS011;39616;48.872;9.390;2022-10-19T02:14:31;15.75;;;9.00;;
53718;SDS011;39616;48.872;9.390;2022-10-19T02:17:09;23.90;;;8.73;;
53718;SDS011;39616;48.872;9.390;2022-10-19T02:19:43;16.70;;;8.45;;
53718;SDS011;39616;48.872;9.390;2022-10-19T02:22:13;13.88;;;8.43;;
53718;SDS011;39616;48.872;9.390;2022-10-19T02:24:43;13.43;;;7.13;;
53718;SDS011;39616;48.872;9.390;2022-10-19T02:27:13;15.52;;;8.65;;
53718;SDS011;39616;48.872;9.390;2022-10-19T02:29:44;15.00;;;7.68;;
53718;SDS011;39616;48.872;9.390;2022-10-19T02:32:15;13.65;;;8.00;;
53718;SDS011;39616;48.872;9.390;2022-10-19T02:34:46;13.32;;;7.55;;
53718;SDS011;39616;48.872;9.390;2022-10-19T02:37:16;10.32;;;7.22;;
53718;SDS011;39616;48.872;9.390;2022-10-19T02:39:47;18.63;;;7.85;;
53718;SDS011;39616;48.872;9.390;2022-10-19T02:42:19;12.40;;;7.00;;
53718;SDS011;39616;48.872;9.390;2022-10-19T02:44:59;11.95;;;7.47;;
53718;SDS011;39616;48.872;9.390;2022-10-19T02:47:44;11.85;;;7.47;;
53718;SDS011;39616;48.872;9.390;2022-10-19T02:50:19;13.27;;;6.95;;
53718;SDS011;39616;48.872;9.390;2022-10-19T02:52:51;12.13;;;6.65;;
53718;SDS011;39616;48.872;9.390;2022-10-19T02:55:21;10.88;;;6.90;;
53718;SDS011;39616;48.872;9.390;2022-10-19T02:57:51;12.23;;;7.35;;
53718;SDS011;39616;48.872;9.390;2022-10-19T03:00:22;17.48;;;7.72;;
53718;SDS011;39616;48.872;9.390;2022-10-19T03:02:53;13.43;;;7.40;;
53718;SDS011;39616;48.872;9.390;2022-10-19T03:05:23;12.70;;;7.15;;
53718;SDS011;39616;48.872;9.390;2022-10-19T03:07:53;14.82;;;7.22;;
53718;SDS011;39616;48.872;9.390;2022-10-19T03:10:24;13.32;;;7.22;;
53718;SDS011;39616;48.872;9.390;2022-10-19T03:12:56;11.63;;;6.68;;
53718;SDS011;39616;48.872;9.390;2022-10-19T03:15:27;13.23;;;7.25;;
53718;SDS011;39616;48.872;9.390;2022-10-19T03:17:58;11.50;;;7.07;;
53718;SDS011;39616;48.872;9.390;2022-10-19T03:20:29;10.82;;;7.15;;
53718;SDS011;39616;48.872;9.390;2022-10-19T03:22:59;14.93;;;7.68;;
53718;SDS011;39616;48.872;9.390;2022-10-19T03:25:29;12.93;;;7.25;;
53718;SDS011;39616;48.872;9.390;2022-10-19T03:28:00;16.92;;;7.30;;
53718;SDS011;39616;48.872;9.390;2022-10-19T03:30:30;13.95;;;7.82;;
53718;SDS011;39616;48.872;9.390;2022-10-19T03:33:00;11.27;;;7.75;;
53718;SDS011;39616;48.872;9.390;2022-10-19T03:35:31;13.82;;;8.50;;
53718;SDS011;39616;48.872;9.390;2022-10-19T03:38:01;13.98;;;7.90;;
53718;SDS011;39616;48.872;9.390;2022-10-19T03:40:31;11.00;;;7.22;;
53718;SDS011;39616;48.872;9.390;2022-10-19T03:43:02;13.95;;;8.18;;
53718;SDS011;39616;48.872;9.390;2022-10-19T03:45:32;17.38;;;8.68;;
53718;SDS011;39616;48.872;9.390;2022-10-19T03:48:02;14.50;;;8.45;;
53718;SDS011;39616;48.872;9.390;2022-10-19T03:50:33;17.10;;;9.18;;
53718;SDS011;39616;48.872;9.390;2022-10-19T03:53:03;15.75;;;9.07;;
53718;SDS011;39616;48.872;9.390;2022-10-19T03:55:33;16.25;;;9.18;;
53718;SDS011;39616;48.872;9.390;2022-10-19T03:58:04;15.68;;;8.82;;
53718;SDS011;39616;48.872;9.390;2022-10-19T04:00:34;17.13;;;9.20;;
53718;SDS011;39616;48.872;9.390;2022-10-19T04:03:04;17.80;;;9.70;;
53718;SDS011;39616;48.872;9.390;2022-10-19T04:05:34;19.30;;;10.77;;
53718;SDS011;39616;48.872;9.390;2022-10-19T04:08:05;17.15;;;9.75;;
53718;SDS011;39616;48.872;9.390;2022-10-19T04:10:35;19.52;;;8.82;;
53718;SDS011;39616;48.872;9.390;2022-10-19T04:13:05;24.33;;;10.38;;
53718;SDS011;39616;48.872;9.390;2022-10-19T04:15:36;19.17;;;9.48;;
53718;SDS011;39616;48.872;9.390;2022-10-19T04:18:06;14.38;;;9.10;;
53718;SDS011;39616;48.872;9.390;2022-10-19T04:20:36;16.30;;;9.90;;
53718;SDS011;39616;48.872;9.390;2022-10-19T04:23:11;14.00;;;9.15;;
53718;SDS011;39616;48.872;9.390;2022-10-19T04:25:41;17.98;;;10.07;;
53718;SDS011;39616;48.872;9.390;2022-10-19T04:28:11;18.70;;;10.07;;
53718;SDS011;39616;48.872;9.390;2022-10-19T04:30:41;16.67;;;9.65;;
53718;SDS011;39616;48.872;9.390;2022-10-19T04:33:12;17.13;;;9.70;;
53718;SDS011;39616;48.872;9.390;2022-10-19T04:35:42;23.05;;;11.82;;
53718;SDS011;39616;48.872;9.390;2022-10-19T04:38:12;24.25;;;11.52;;
53718;SDS011;39616;48.872;9.390;2022-10-19T04:40:43;16.90;;;10.82;;
53718;SDS011;39616;48.872;9.390;2022-10-19T04:43:13;20.58;;;11.23;;
53718;SDS011;39616;48.872;9.390;2022-10-19T04:45:43;24.98;;;13.13;;
53718;SDS011;39616;48.872;9.390;2022-10-19T04:48:13;23.85;;;13.52;;
53718;SDS011;39616;48.872;9.390;2022-10-19T04:50:44;23.80;;;12.48;;
53718;SDS011;39616;48.872;9.390;2022-10-19T04:53:14;20.40;;;11.13;;
53718;SDS011;39616;48.872;9.390;2022-10-19T04:55:44;17.40;;;11.35;;
53718;SDS011;39616;48.872;9.390;2022-10-19T04:58:15;19.52;;;10.88;;
53718;SDS011;39616;48.872;9.390;2022-10-19T05:00:45;18.33;;;10.77;;
53718;SDS011;39616;48.872;9.390;2022-10-19T05:03:15;16.95;;;9.88;;
53718;SDS011;39616;48.872;9.390;2022-10-19T05:05:46;19.80;;;10.43;;
53718;SDS011;39616;48.872;9.390;2022-10-19T05:08:16;16.70;;;10.27;;
53718;SDS011;39616;48.872;9.390;2022-10-19T05:10:47;18.58;;;10.00;;
53718;SDS011;39616;48.872;9.390;2022-10-19T05:13:17;18.80;;;10.55;;
53718;SDS011;39616;48.872;9.390;2022-10-19T05:15:54;17.77;;;9.52;;
53718;SDS011;39616;48.872;9.390;2022-10-19T05:18:28;17.73;;;9.90;;
53718;SDS011;39616;48.872;9.390;2022-10-19T05:21:00;21.55;;;10.38;;
53718;SDS011;39616;48.872;9.390;2022-10-19T05:23:30;17.65;;;9.50;;
53718;SDS011;39616;48.872;9.390;2022-10-19T05:26:05;14.75;;;9.60;;
53718;SDS011;39616;48.872;9.390;2022-10-19T05:28:40;14.45;;;8.98;;
53718;SDS011;39616;48.872;9.390;2022-10-19T05:31:12;16.10;;;9.55;;
53718;SDS011;39616;48.872;9.390;2022-10-19T05:33:44;13.95;;;8.65;;
53718;SDS011;39616;48.872;9.390;2022-10-19T05:36:19;17.40;;;10.55;;
53718;SDS011;39616;48.872;9.390;2022-10-19T05:38:52;19.80;;;10.88;;
53718;SDS011;39616;48.872;9.390;2022-10-19T05:41:24;14.70;;;9.00;;
53718;SDS011;39616;48.872;9.390;2022-10-19T05:43:56;15.88;;;8.98;;
53718;SDS011;39616;48.872;9.390;2022-10-19T05:46:28;18.17;;;10.82;;
53718;SDS011;39616;48.872;9.390;2022-10-19T05:48:59;17.20;;;9.75;;
53718;SDS011;39616;48.872;9.390;2022-10-19T05:51:30;22.50;;;9.63;;
53718;SDS011;39616;48.872;9.390;2022-10-19T05:54:00;12.85;;;8.55;;
53718;SDS011;39616;48.872;9.390;2022-10-19T05:56:31;16.85;;;8.98;;
53718;SDS011;39616;48.872;9.390;2022-10-19T05:59:03;13.63;;;8.50;;
53718;SDS011;39616;48.872;9.390;2022-10-19T06:01:35;17.60;;;8.88;;
53718;SDS011;39616;48.872;9.390;2022-10-19T06:04:05;12.40;;;7.28;;
53718;SDS011;39616;48.872;9.390;2022-10-19T06:06:36;13.60;;;7.97;;
53718;SDS011;39616;48.872;9.390;2022-10-19T06:09:06;16.48;;;8.10;;
53718;SDS011;39616;48.872;9.390;2022-10-19T06:11:38;11.45;;;7.75;;
53718;SDS011;39616;48.872;9.390;2022-10-19T06:14:11;15.18;;;7.38;;
53718;SDS011;39616;48.872;9.390;2022-10-19T06:16:43;15.70;;;8.25;;
53718;SDS011;39616;48.872;9.390;2022-10-19T06:19:14;16.35;;;7.82;;
53718;SDS011;39616;48.872;9.390;2022-10-19T06:21:45;23.08;;;9.73;;
53718;SDS011;39616;48.872;9.390;2022-10-19T06:24:15;20.40;;;9.30;;
53718;SDS011;39616;48.872;9.390;2022-10-19T06:26:45;20.25;;;9.48;;
53718;SDS011;39616;48.872;9.390;2022-10-19T06:29:16;20.17;;;9.32;;
53718;SDS011;39616;48.872;9.390;2022-10-19T06:31:46;28.02;;;11.02;;
53718;SDS011;39616;48.872;9.390;2022-10-19T06:34:17;16.77;;;7.78;;
53718;SDS011;39616;48.872;9.390;2022-10-19T06:36:47;15.32;;;7.55;;
53718;SDS011;39616;48.872;9.390;2022-10-19T06:39:17;10.60;;;6.80;;
53718;SDS011;39616;48.872;9.390;2022-10-19T06:41:48;16.15;;;7.25;;
53718;SDS011;39616;48.872;9.390;2022-10-19T06:44:18;11.93;;;6.80;;
53718;SDS011;39616;48.872;9.390;2022-10-19T06:46:48;12.18;;;7.25;;
53718;SDS011;39616;48.872;9.390;2022-10-19T06:49:19;16.83;;;7.85;;
53718;SDS011;39616;48.872;9.390;2022-10-19T06:51:49;15.73;;;8.20;;
53718;SDS011;39616;48.872;9.390;2022-10-19T06:54:19;11.55;;;7.35;;
53718;SDS011;39616;48.872;9.390;2022-10-19T06:56:49;11.65;;;7.70;;
53718;SDS011;39616;48.872;9.390;2022-10-19T06:59:20;11.95;;;7.70;;
53718;SDS011;39616;48.872;9.390;2022-10-19T07:01:50;10.57;;;6.43;;
53718;SDS011;39616;48.872;9.390;2022-10-19T07:04:20;11.05;;;7.38;;
53718;SDS011;39616;48.872;9.390;2022-10-19T07:06:50;16.50;;;6.32;;
53718;SDS011;39616;48.872;9.390;2022-10-19T07:09:21;9.68;;;5.95;;
53718;SDS011;39616;48.872;9.390;2022-10-19T07:11:51;10.32;;;5.90;;
53718;SDS011;39616;48.872;9.390;2022-10-19T07:14:21;10.52;;;5.20;;
53718;SDS011;39616;48.872;9.390;2022-10-19T07:16:57;10.00;;;7.35;;
53718;SDS011;39616;48.872;9.390;2022-10-19T07:19:27;11.57;;;6.32;;
53718;SDS011;39616;48.872;9.390;2022-10-19T07:21:57;9.25;;;6.30;;
53718;SDS011;39616;48.872;9.390;2022-10-19T07:24:28;12.95;;;6.70;;
53718;SDS011;39616;48.872;9.390;2022-10-19T07:26:58;10.88;;;6.55;;
53718;SDS011;39616;48.872;9.390;2022-10-19T07:29:29;13.75;;;7.72;;
53718;SDS011;39616;48.872;9.390;2022-10-19T07:31:59;15.20;;;7.00;;
53718;SDS011;39616;48.872;9.390;2022-10-19T07:34:29;10.95;;;6.82;;
53718;SDS011;39616;48.872;9.390;2022-10-19T07:36:59;29.77;;;15.10;;
53718;SDS011;39616;48.872;9.390;2022-10-19T07:39:30;15.65;;;8.98;;
53718;SDS011;39616;48.872;9.390;2022-10-19T07:42:00;14.60;;;8.48;;
53718;SDS011;39616;48.872;9.390;2022-10-19T07:44:30;15.48;;;8.48;;
53718;SDS011;39616;48.872;9.390;2022-10-19T07:47:01;16.73;;;8.07;;
53718;SDS011;39616;48.872;9.390;2022-10-19T07:49:33;14.88;;;7.93;;
53718;SDS011;39616;48.872;9.390;2022-10-19T07:52:04;11.30;;;6.88;;
53718;SDS011;39616;48.872;9.390;2022-10-19T07:54:34;15.35;;;6.57;;
53718;SDS011;39616;48.872;9.390;2022-10-19T07:57:04;11.07;;;6.95;;
53718;SDS011;39616;48.872;9.390;2022-10-19T07:59:35;10.52;;;6.65;;
53718;SDS011;39616;48.872;9.390;2022-10-19T08:02:07;14.93;;;6.63;;
53718;SDS011;39616;48.872;9.390;2022-10-19T08:04:43;10.40;;;6.80;;
53718;SDS011;39616;48.872;9.390;2022-10-19T08:07:13;11.05;;;7.00;;
53718;SDS011;39616;48.872;9.390;2022-10-19T08:09:44;8.07;;;5.22;;
53718;SDS011;39616;48.872;9.390;2022-10-19T08:12:14;9.05;;;5.57;;
53718;SDS011;39616;48.872;9.390;2022-10-19T08:14:44;12.25;;;5.82;;
53718;SDS011;39616;48.872;9.390;2022-10-19T08:17:16;6.60;;;5.30;;
53718;SDS011;39616;48.872;9.390;2022-10-19T08:19:47;7.80;;;4.97;;
53718;SDS011;39616;48.872;9.390;2022-10-19T08:22:17;7.25;;;5.25;;
53718;SDS011;39616;48.872;9.390;2022-10-19T08:24:47;7.28;;;4.65;;
53718;SDS011;39616;48.872;9.390;2022-10-19T08:27:18;5.53;;;4.07;;
53718;SDS011;39616;48.872;9.390;2022-10-19T08:29:48;6.00;;;3.97;;
53718;SDS011;39616;48.872;9.390;2022-10-19T08:32:19;6.75;;;3.70;;
53718;SDS011;39616;48.872;9.390;2022-10-19T08:34:49;11.05;;;4.57;;
53718;SDS011;39616;48.872;9.390;2022-10-19T08:37:19;6.32;;;3.72;;
53718;SDS011;39616;48.872;9.390;2022-10-19T08:39:50;11.23;;;4.35;;
53718;SDS011;39616;48.872;9.390;2022-10-19T08:42:24;5.55;;;3.53;;
53718;SDS011;39616;48.872;9.390;2022-10-19T08:45:02;7.82;;;3.97;;
53718;SDS011;39616;48.872;9.390;2022-10-19T08:47:44;5.57;;;3.95;;
53718;SDS011;39616;48.872;9.390;2022-10-19T08:50:35;8.10;;;4.03;;
53718;SDS011;39616;48.872;9.390;2022-10-19T08:53:15;9.02;;;3.40;;
53718;SDS011;39616;48.872;9.390;2022-10-19T08:56:06;4.78;;;2.72;;
53718;SDS011;39616;48.872;9.390;2022-10-19T09:09:41;3.95;;;2.58;;
53718;SDS011;39616;48.872;9.390;2022-10-19T09:12:16;4.38;;;2.50;;
53718;SDS011;39616;48.872;9.390;2022-10-19T09:14:55;3.38;;;2.25;;
53718;SDS011;39616;48.872;9.390;2022-10-19T09:17:28;2.55;;;1.75;;
53718;SDS011;39616;48.872;9.390;2022-10-19T09:20:00;5.50;;;2.45;;
53718;SDS011;39616;48.872;9.390;2022-10-19T09:22:44;5.53;;;2.30;;
53718;SDS011;39616;48.872;9.390;2022-10-19T09:25:19;3.55;;;1.83;;
53718;SDS011;39616;48.872;9.390;2022-10-19T09:28:03;6.50;;;2.25;;
53718;SDS011;39616;48.872;9.390;2022-10-19T09:30:42;2.25;;;1.65;;
53718;SDS011;39616;48.872;9.390;2022-10-19T09:33:18;5.22;;;2.70;;
53718;SDS011;39616;48.872;9.390;2022-10-19T09:35:56;3.33;;;1.67;;
53718;SDS011;39616;48.872;9.390;2022-10-19T09:38:28;2.05;;;1.65;;
53718;SDS011;39616;48.872;9.390;2022-10-19T09:41:10;3.47;;;2.20;;
53718;SDS011;39616;48.872;9.390;2022-10-19T09:43:47;5.07;;;1.95;;
53718;SDS011;39616;48.872;9.390;2022-10-19T09:57:49;3.22;;;1.90;;
53718;SDS011;39616;48.872;9.390;2022-10-19T10:00:32;3.00;;;1.50;;
53718;SDS011;39616;48.872;9.390;2022-10-19T10:03:05;5.25;;;1.88;;
53718;SDS011;39616;48.872;9.390;2022-10-19T10:05:37;4.43;;;1.50;;
53718;SDS011;39616;48.872;9.390;2022-10-19T10:08:13;2.63;;;1.63;;
53718;SDS011;39616;48.872;9.390;2022-10-19T10:10:58;2.45;;;1.65;;
53718;SDS011;39616;48.872;9.390;2022-10-19T10:13:36;2.85;;;1.58;;
53718;SDS011;39616;48.872;9.390;2022-10-19T10:16:09;4.93;;;1.75;;
53718;SDS011;39616;48.872;9.390;2022-10-19T10:19:29;2.75;;;1.92;;
53718;SDS011;39616;48.872;9.390;2022-10-19T10:21:50;2.33;;;1.60;;
53718;SDS011;39616;48.872;9.390;2022-10-19T10:24:28;4.18;;;1.45;;
53718;SDS011;39616;48.872;9.390;2022-10-19T10:27:02;2.92;;;1.20;;
53718;SDS011;39616;48.872;9.390;2022-10-19T10:29:36;3.83;;;1.10;;
53718;SDS011;39616;48.872;9.390;2022-10-19T10:32:11;2.90;;;1.35;;
53718;SDS011;39616;48.872;9.390;2022-10-19T10:35:00;1.70;;;1.13;;
53718;SDS011;39616;48.872;9.390;2022-10-19T10:37:45;2.97;;;1.35;;
53718;SDS011;39616;48.872;9.390;2022-10-19T10:42:56;1.80;;;1.05;;
53718;SDS011;39616;48.872;9.390;2022-10-19T10:45:37;1.80;;;0.88;;
53718;SDS011;39616;48.872;9.390;2022-10-19T10:50:55;1.35;;;0.70;;
53718;SDS011;39616;48.872;9.390;2022-10-19T10:53:30;1.42;;;0.95;;
53718;SDS011;39616;48.872;9.390;2022-10-19T10:56:03;4.55;;;0.90;;
53718;SDS011;39616;48.872;9.390;2022-10-19T11:01:51;1.30;;;0.90;;
53718;SDS011;39616;48.872;9.390;2022-10-19T11:04:31;1.80;;;1.05;;
53718;SDS011;39616;48.872;9.390;2022-10-19T11:07:11;2.08;;;0.90;;
53718;SDS011;39616;48.872;9.390;2022-10-19T11:09:58;0.98;;;0.80;;
53718;SDS011;39616;48.872;9.390;2022-10-19T11:12:40;4.05;;;1.00;;
53718;SDS011;39616;48.872;9.390;2022-10-19T11:15:36;3.85;;;1.08;;
53718;SDS011;39616;48.872;9.390;2022-10-19T11:18:49;3.13;;;1.05;;
53718;SDS011;39616;48.872;9.390;2022-10-19T11:21:30;1.85;;;1.08;;
53718;SDS011;39616;48.872;9.390;2022-10-19T11:24:17;2.22;;;1.10;;
53718;SDS011;39616;48.872;9.390;2022-10-19T11:30:21;2.25;;;1.02;;
53718;SDS011;39616;48.872;9.390;2022-10-19T11:40:58;1.33;;;1.00;;
53718;SDS011;39616;48.872;9.390;2022-10-19T11:49:46;1.52;;;0.90;;
53718;SDS011;39616;48.872;9.390;2022-10-19T11:52:45;1.13;;;0.90;;
53718;SDS011;39616;48.872;9.390;2022-10-19T12:00:40;1.65;;;1.25;;
53718;SDS011;39616;48.872;9.390;2022-10-19T12:03:22;3.10;;;1.00;;
53718;SDS011;39616;48.872;9.390;2022-10-19T12:12:06;0.98;;;0.90;;
53718;SDS011;39616;48.872;9.390;2022-10-19T12:14:53;1.33;;;1.20;;
53718;SDS011;39616;48.872;9.390;2022-10-19T12:17:32;2.28;;;1.08;;
53718;SDS011;39616;48.872;9.390;2022-10-19T12:20:18;4.00;;;0.90;;
53718;SDS011;39616;48.872;9.390;2022-10-19T12:22:52;1.73;;;1.33;;
53718;SDS011;39616;48.872;9.390;2022-10-19T12:25:23;1.30;;;1.20;;
53718;SDS011;39616;48.872;9.390;2022-10-19T12:27:55;3.42;;;1.20;;
53718;SDS011;39616;48.872;9.390;2022-10-19T12:30:26;1.42;;;1.10;;
53718;SDS011;39616;48.872;9.390;2022-10-19T12:33:05;1.30;;;1.10;;
53718;SDS011;39616;48.872;9.390;2022-10-19T12:35:50;1.10;;;1.00;;
53718;SDS011;39616;48.872;9.390;2022-10-19T12:38:39;4.28;;;1.33;;
53718;SDS011;39616;48.872;9.390;2022-10-19T12:41:25;1.98;;;1.20;;
53718;SDS011;39616;48.872;9.390;2022-10-19T12:44:05;1.50;;;1.25;;
53718;SDS011;39616;48.872;9.390;2022-10-19T12:46:46;1.58;;;1.13;;
53718;SDS011;39616;48.872;9.390;2022-10-19T12:52:00;1.90;;;1.10;;
53718;SDS011;39616;48.872;9.390;2022-10-19T12:54:31;1.95;;;1.40;;
53718;SDS011;39616;48.872;9.390;2022-10-19T12:57:17;1.92;;;1.13;;
53718;SDS011;39616;48.872;9.390;2022-10-19T12:59:56;1.52;;;1.30;;
53718;SDS011;39616;48.872;9.390;2022-10-19T13:02:30;2.35;;;1.20;;
53718;SDS011;39616;48.872;9.390;2022-10-19T13:05:04;3.42;;;1.42;;
53718;SDS011;39616;48.872;9.390;2022-10-19T13:07:35;2.78;;;1.30;;
53718;SDS011;39616;48.872;9.390;2022-10-19T13:10:05;2.35;;;1.10;;
53718;SDS011;39616;48.872;9.390;2022-10-19T13:12:46;1.55;;;1.13;;
53718;SDS011;39616;48.872;9.390;2022-10-19T13:15:48;1.42;;;1.20;;
53718;SDS011;39616;48.872;9.390;2022-10-19T13:29:38;1.30;;;1.10;;
53718;SDS011;39616;48.872;9.390;2022-10-19T13:35:30;3.60;;;0.95;;
53718;SDS011;39616;48.872;9.390;2022-10-19T13:43:22;3.40;;;0.90;;
53718;SDS011;39616;48.872;9.390;2022-10-19T13:46:01;2.80;;;0.80;;
53718;SDS011;39616;48.872;9.390;2022-10-19T13:51:17;3.53;;;0.80;;
53718;SDS011;39616;48.872;9.390;2022-10-19T13:54:13;3.15;;;1.00;;
53718;SDS011;39616;48.872;9.390;2022-10-19T14:08:02;3.90;;;0.98;;
53718;SDS011;39616;48.872;9.390;2022-10-19T14:11:01;1.52;;;0.90;;
53718;SDS011;39616;48.872;9.390;2022-10-19T14:13:34;2.03;;;0.90;;
53718;SDS011;39616;48.872;9.390;2022-10-19T14:16:05;3.65;;;1.02;;
53718;SDS011;39616;48.872;9.390;2022-10-19T14:18:35;1.92;;;0.90;;
53718;SDS011;39616;48.872;9.390;2022-10-19T14:21:07;1.55;;;0.90;;
53718;SDS011;39616;48.872;9.390;2022-10-19T14:23:38;1.65;;;0.98;;
53718;SDS011;39616;48.872;9.390;2022-10-19T14:26:14;2.63;;;1.00;;
53718;SDS011;39616;48.872;9.390;2022-10-19T14:28:53;3.75;;;1.13;;
53718;SDS011;39616;48.872;9.390;2022-10-19T14:31:30;2.88;;;1.15;;
53718;SDS011;39616;48.872;9.390;2022-10-19T14:34:05;0.90;;;0.90;;
53718;SDS011;39616;48.872;9.390;2022-10-19T14:36:38;3.20;;;1.10;;
53718;SDS011;39616;48.872;9.390;2022-10-19T14:39:28;2.63;;;1.13;;
53718;SDS011;39616;48.872;9.390;2022-10-19T14:42:04;1.40;;;1.00;;
53718;SDS011;39616;48.872;9.390;2022-10-19T14:44:40;4.25;;;1.25;;
53718;SDS011;39616;48.872;9.390;2022-10-19T14:47:19;4.47;;;1.05;;
53718;SDS011;39616;48.872;9.390;2022-10-19T14:49:52;1.63;;;1.20;;
53718;SDS011;39616;48.872;9.390;2022-10-19T14:52:24;1.83;;;1.10;;
53718;SDS011;39616;48.872;9.390;2022-10-19T14:55:01;2.50;;;1.10;;
53718;SDS011;39616;48.872;9.390;2022-10-19T14:57:37;2.65;;;1.15;;
53718;SDS011;39616;48.872;9.390;2022-10-19T15:00:13;2.20;;;1.50;;
53718;SDS011;39616;48.872;9.390;2022-10-19T15:02:56;2.85;;;1.40;;
53718;SDS011;39616;48.872;9.390;2022-10-19T15:05:32;1.92;;;1.27;;
53718;SDS011;39616;48.872;9.390;2022-10-19T15:08:06;1.38;;;1.10;;
53718;SDS011;39616;48.872;9.390;2022-10-19T15:10:41;1.30;;;1.10;;
53718;SDS011;39616;48.872;9.390;2022-10-19T15:15:52;1.55;;;1.00;;
53718;SDS011;39616;48.872;9.390;2022-10-19T15:18:24;4.47;;;1.15;;
53718;SDS011;39616;48.872;9.390;2022-10-19T15:21:00;1.98;;;1.27;;
53718;SDS011;39616;48.872;9.390;2022-10-19T15:26:18;1.80;;;1.20;;
53718;SDS011;39616;48.872;9.390;2022-10-19T15:29:08;3.88;;;1.35;;
53718;SDS011;39616;48.872;9.390;2022-10-19T15:31:47;1.65;;;1.55;;
53718;SDS011;39616;48.872;9.390;2022-10-19T15:34:26;2.25;;;1.65;;
53718;SDS011;39616;48.872;9.390;2022-10-19T15:36:59;2.95;;;1.48;;
53718;SDS011;39616;48.872;9.390;2022-10-19T15:39:31;1.63;;;1.52;;
53718;SDS011;39616;48.872;9.390;2022-10-19T15:48:13;3.63;;;1.63;;
53718;SDS011;39616;48.872;9.390;2022-10-19T15:50:45;3.38;;;1.60;;
53718;SDS011;39616;48.872;9.390;2022-10-19T15:53:18;3.03;;;2.10;;
53718;SDS011;39616;48.872;9.390;2022-10-19T15:55:48;5.13;;;1.90;;
53718;SDS011;39616;48.872;9.390;2022-10-19T15:58:19;2.53;;;2.10;;
53718;SDS011;39616;48.872;9.390;2022-10-19T16:00:50;2.40;;;1.90;;
53718;SDS011;39616;48.872;9.390;2022-10-19T16:03:20;7.47;;;2.25;;
53718;SDS011;39616;48.872;9.390;2022-10-19T16:05:52;2.13;;;1.80;;
53718;SDS011;39616;48.872;9.390;2022-10-19T16:08:22;5.03;;;2.70;;
53718;SDS011;39616;48.872;9.390;2022-10-19T16:10:52;4.75;;;2.67;;
53718;SDS011;39616;48.872;9.390;2022-10-19T16:13:22;5.20;;;2.33;;
53718;SDS011;39616;48.872;9.390;2022-10-19T16:16:02;8.73;;;3.10;;
53718;SDS011;39616;48.872;9.390;2022-10-19T16:18:34;6.65;;;2.47;;
53718;SDS011;39616;48.872;9.390;2022-10-19T16:21:04;4.10;;;2.30;;
53718;SDS011;39616;48.872;9.390;2022-10-19T16:23:35;2.63;;;2.35;;
53718;SDS011;39616;48.872;9.390;2022-10-19T16:26:08;3.15;;;2.83;;
53718;SDS011;39616;48.872;9.390;2022-10-19T16:28:38;6.40;;;3.00;;
53718;SDS011;39616;48.872;9.390;2022-10-19T16:31:09;6.53;;;2.33;;
53718;SDS011;39616;48.872;9.390;2022-10-19T16:33:40;10.07;;;3.40;;
53718;SDS011;39616;48.872;9.390;2022-10-19T16:36:11;5.65;;;3.00;;
53718;SDS011;39616;48.872;9.390;2022-10-19T16:38:42;8.38;;;3.47;;
53718;SDS011;39616;48.872;9.390;2022-10-19T16:41:12;10.93;;;2.80;;
53718;SDS011;39616;48.872;9.390;2022-10-19T16:43:43;5.22;;;2.97;;
53718;SDS011;39616;48.872;9.390;2022-10-19T16:46:13;8.45;;;2.75;;
53718;SDS011;39616;48.872;9.390;2022-10-19T16:48:43;10.05;;;3.15;;
53718;SDS011;39616;48.872;9.390;2022-10-19T16:53:51;5.55;;;3.40;;
53718;SDS011;39616;48.872;9.390;2022-10-19T16:56:26;6.03;;;3.90;;
53718;SDS011;39616;48.872;9.390;2022-10-19T16:58:59;7.05;;;2.97;;
53718;SDS011;39616;48.872;9.390;2022-10-19T17:01:33;7.15;;;4.20;;
53718;SDS011;39616;48.872;9.390;2022-10-19T17:04:03;11.43;;;3.70;;
53718;SDS011;39616;48.872;9.390;2022-10-19T17:06:34;4.90;;;3.72;;
53718;SDS011;39616;48.872;9.390;2022-10-19T17:09:04;9.82;;;4.82;;
53718;SDS011;39616;48.872;9.390;2022-10-19T17:11:35;6.97;;;4.22;;
53718;SDS011;39616;48.872;9.390;2022-10-19T17:14:09;11.68;;;3.88;;
53718;SDS011;39616;48.872;9.390;2022-10-19T17:16:41;12.25;;;4.38;;
53718;SDS011;39616;48.872;9.390;2022-10-19T17:19:11;16.30;;;4.80;;
53718;SDS011;39616;48.872;9.390;2022-10-19T17:21:41;5.03;;;4.32;;
53718;SDS011;39616;48.872;9.390;2022-10-19T17:24:13;12.05;;;4.60;;
53718;SDS011;39616;48.872;9.390;2022-10-19T17:26:45;12.20;;;5.03;;
53718;SDS011;39616;48.872;9.390;2022-10-19T17:29:15;10.40;;;5.13;;
53718;SDS011;39616;48.872;9.390;2022-10-19T17:31:46;11.00;;;5.70;;
53718;SDS011;39616;48.872;9.390;2022-10-19T17:34:17;7.22;;;5.30;;
53718;SDS011;39616;48.872;9.390;2022-10-19T17:36:49;10.30;;;6.20;;
53718;SDS011;39616;48.872;9.390;2022-10-19T17:39:20;9.23;;;5.80;;
53718;SDS011;39616;48.872;9.390;2022-10-19T17:41:52;8.18;;;5.38;;